Selected Aviation Weather Reports

Never base important decisions on this or any weather information obtained from a non-NWS site!

Last update: Jan 26, 2021, 9:50 pm CDT

 

TNC157 Special Weather Statement  level:  Minor     fromJan 27 2021 2:57 am -  until5:00 am

Minimal threat to life or property - Responsive action SHOULD be taken soon (within next hour)

...Winter precipitation possible... A mixed bag of wintry precipitation is possible across Northeast Arkansas, the Missouri Bootheel and Northwest Tennessee for a brief period late tonight into tomorrow. Overnight lows are not expected to be at or below normal for more than an hour or two to accumulating sleet or snow should not be significant, and likely

METAR for KATL, KDFW, KEWR, KLAX, KMEM & KORD

METAR is also known as Meteorological Terminal Aviation Routine Weather Report or Meteorological Aerodrome Report.


2021/01/27 02:52 KATL 270252Z 25003KT 10SM FEW090 SCT250 14/12 A2997 RMK AO2 SLP147 T01390117 51009

KATL, Jan 27, 2021, 02:52Z
Hartsfield-Jackson Atlanta International Airport
Wind: 250° @ 3 kts
Visibility: 10 Statute miles
Clouds: Few @ 9,000 ft
Scattered @ 25,000 ft
Altimeter: 29.97 in/Hg
Sea Level Pressure: 1014.7 mb
Temperature: 57.02°F (13.9°C)
Dew Point: 53.06°F (11.7°C)
Pressure trend, past 3 hrs: Pressure Trend 0.9 in/Hg

2021/01/27 02:53 KDFW 270253Z 01013KT 10SM BKN110 BKN130 BKN150 08/01 A2997 RMK AO2 SLP147 T00830011 53026

KDFW, Jan 27, 2021, 02:53Z
Dallas-Ft. Worth International Airport
Wind: 010° @ 13 kts
Visibility: 10 Statute miles
Clouds: Broken @ 11,000 ft
Broken @ 13,000 ft
Broken @ 15,000 ft
Altimeter: 29.97 in/Hg
Sea Level Pressure: 1014.7 mb
Temperature: 46.94°F (8.3°C)
Dew Point: 33.98°F (1.1°C)
Pressure trend, past 3 hrs: Pressure Trend 2.6 in/Hg

2021/01/27 03:18 KEWR 270318Z 02004KT 4SM -RA BR OVC006 01/01 A2985 RMK AO2 PLE17 CIG 005V007 P0000 T00110006

KEWR, Jan 27, 2021, 03:18Z
Newark Liberty International Airport
Wind: 020° @ 4 kts
Visibility: 4 Statute miles with Light Rain & Mist
Clouds: Overcast @ 600 ft
Ceiling: Ceiling Variable 500ft to 700ft
Altimeter: 29.85 in/Hg
Temperature: 33.98°F (1.1°C)
Dew Point: 33.08°F (0.6°C)
Precipitation, previous hr: None
Additional Remarks: 
Ice Pellets Ended @ 17 past the hr.

2021/01/27 02:53 KLAX 270253Z 21003KT 10SM BKN120 11/00 A3009 RMK AO2 SLP190 T01060000 51013

KLAX, Jan 27, 2021, 02:53Z
Los Angeles International Airport
Wind: 210° @ 3 kts
Visibility: 10 Statute miles
Clouds: Broken @ 12,000 ft
Altimeter: 30.09 in/Hg
Sea Level Pressure: 1019.0 mb
Temperature: 51.08°F (10.6°C)
Dew Point: 32°F (0.0°C)
Pressure trend, past 3 hrs: Pressure Trend 1.3 in/Hg

2021/01/27 02:54 KMEM 270254Z 02009KT 10SM SCT120 BKN150 08/04 A3002 RMK AO2 SLP166 T00830039 53013 $

KMEM, Jan 27, 2021, 02:54Z
Memphis International Airport
Wind: 020° @ 9 kts
Visibility: 10 Statute miles
Clouds: Scattered @ 12,000 ft
Broken @ 15,000 ft
Altimeter: 30.02 in/Hg
Sea Level Pressure: 1016.6 mb
Temperature: 46.94°F (8.3°C)
Dew Point: 39.02°F (3.9°C)
Pressure trend, past 3 hrs: Pressure Trend 1.3 in/Hg
Additional Remarks: 
Maintenance Needed on the System.

2021/01/27 02:51 KORD 270251Z 35017KT 10SM OVC018 M04/M08 A3015 RMK AO2 PK WND 36026/0240 SLP218 T10391078 51028 $

KORD, Jan 27, 2021, 02:51Z
Chicago O’Hare International Airport
Wind: 350° @ 17 kts
Visibility: 10 Statute miles
Clouds: Overcast @ 1,800 ft
Altimeter: 30.15 in/Hg
Sea Level Pressure: 1021.8 mb
Temperature: 24.98°F (-3.9°C)
Dew Point: 17.96°F (-7.8°C)
Pressure trend, past 3 hrs: Pressure Trend 2.8 in/Hg
Peak wind: 360° @ 26 kts, 02:40Z
Additional Remarks: 
Maintenance Needed on the System.

Top of page